Airfield :







YOU CAN JOIN US ON...

 
LOGIN :

Register | Disclaimer

   EN    FR    IT 

 









Legend :    VFR   Marginal VFR   IFR   Intensive IFR   Very Intensive IFR
Visi :
Ceiling :
>= 8 km
>= 3000ft
5 to 8 km
1000 to 3000 ft
1500m to 5 km
500 to 1000 ft
800 to 1500m
200 to 500 ft
< 800m
< 200 ft
Symbols :   Thunderstorms  Fog  Heavy snow  Heavy precipitations  Wind > 20 kt






- Airport Elevation : 127 ft
- IATA code : AXA


TQPF - Wallblake

EXPIRED METARs :
  • 292300Z 11011KT 9999 SCT018 29/25 Q1016
  • 292200Z 11011KT 9999 FEW019 29/25 Q1016
  • 292100Z 10013KT 9999 FEW020 30/25 Q1016

TAF TAF TQPF
Valid from the 29 at 18:00 until the 30 at 18:00 UTC


291700Z 2918/3018 10012KT 9999 SCT020
PROB30 TEMP0 2918/3009 SHRA
TJZS FIR / North America



MET'MAP, your aeronautical weather chart ! - Copyright ORBIFLY December 2007 - Disclaimer

ORBIFLY MET'MAP TEAM :

Programming & Development : Alexandra Zaïnal
Original concept : Baudouin d'Aumeries
Technical & hardware support : Manuel Goepfert
Assistance : Marc-Olivier Méhu




SOURCES & CREDITS :

   NOAA